SAS2645 EDDH-ESSA
Flight info
| Callsign | SAS2645 |
|---|---|
| Flight time | 1h 17m |
| Altitude | 37000 |
| Route | LUGEG3G LUGEG P605 MEGAR DCT KUBIS DCT MIKNA N851 PELUP Z226 NILUG |
| Aircraft | A321/M-SDE3FGHIRWY/LB1 |
Departure
| Time | 2026-04-26 18:09 |
|---|---|
| Airport | Hamburg Helmut Schmidt Airport (EDDH) |
Arrival
| Time | 2026-04-26 19:26 |
|---|---|
| Airport | Stockholm-Arlanda Airport (ESSA) |
| Time | Latitude | Longitude | Altitude | Speed | Heading |
|---|---|---|---|---|---|
| 2026-04-26 17:16 | 53.63113 | 10.00369 | 51 ft | 0 kts | 87° |
| 2026-04-26 18:00 | 53.63113 | 10.00360 | 49 ft | 4 kts | 87° |
| 2026-04-26 18:00 | 53.63111 | 10.00315 | 46 ft | 3 kts | 86° |
| 2026-04-26 18:00 | 53.63111 | 10.00281 | 46 ft | 4 kts | 117° |
| 2026-04-26 18:00 | 53.63127 | 10.00258 | 44 ft | 4 kts | 173° |
| 2026-04-26 18:01 | 53.63152 | 10.00254 | 46 ft | 4 kts | 177° |
| 2026-04-26 18:01 | 53.63162 | 10.00253 | 45 ft | 0 kts | 177° |
| 2026-04-26 18:03 | 53.63159 | 10.00253 | 51 ft | 3 kts | 178° |
| 2026-04-26 18:03 | 53.63068 | 10.00182 | 47 ft | 24 kts | 213° |
| 2026-04-26 18:03 | 53.62936 | 10.00028 | 50 ft | 17 kts | 223° |
| 2026-04-26 18:04 | 53.62893 | 9.99903 | 50 ft | 0 kts | 243° |
| 2026-04-26 18:07 | 53.62887 | 9.99881 | 49 ft | 4 kts | 243° |
| 2026-04-26 18:07 | 53.62875 | 9.99841 | 47 ft | 7 kts | 244° |
| 2026-04-26 18:08 | 53.62914 | 9.99704 | 50 ft | 3 kts | 332° |
| 2026-04-26 18:08 | 53.62923 | 9.99696 | 50 ft | 15 kts | 332° |
| 2026-04-26 18:08 | 53.63339 | 9.99328 | 51 ft | 115 kts | 334° |
| 2026-04-26 18:09 | 53.64291 | 9.98507 | 170 ft | 183 kts | 332° |
| 2026-04-26 18:09 | 53.65515 | 9.97496 | 782 ft | 202 kts | 332° |
| 2026-04-26 18:09 | 53.66837 | 9.96365 | 1290 ft | 226 kts | 332° |
| 2026-04-26 18:09 | 53.68310 | 9.95152 | 1885 ft | 243 kts | 339° |
| 2026-04-26 18:10 | 53.69997 | 9.94647 | 2723 ft | 252 kts | 358° |
| 2026-04-26 18:10 | 53.71772 | 9.94719 | 3511 ft | 261 kts | 7° |
| 2026-04-26 18:10 | 53.73460 | 9.95924 | 4307 ft | 270 kts | 38° |
| 2026-04-26 18:10 | 53.74648 | 9.98423 | 4845 ft | 277 kts | 62° |
| 2026-04-26 18:11 | 53.75506 | 10.01321 | 4980 ft | 276 kts | 63° |
| 2026-04-26 18:11 | 53.76334 | 10.04243 | 5016 ft | 275 kts | 64° |
| 2026-04-26 18:11 | 53.77154 | 10.07167 | 5014 ft | 275 kts | 64° |
| 2026-04-26 18:11 | 53.77973 | 10.10081 | 5012 ft | 275 kts | 64° |
| 2026-04-26 18:12 | 53.78799 | 10.12996 | 5014 ft | 274 kts | 64° |
| 2026-04-26 18:12 | 53.79625 | 10.15898 | 5008 ft | 274 kts | 63° |
| 2026-04-26 18:12 | 53.80452 | 10.18799 | 5007 ft | 274 kts | 63° |
| 2026-04-26 18:12 | 53.81285 | 10.21708 | 5006 ft | 274 kts | 63° |
| 2026-04-26 18:13 | 53.82115 | 10.24602 | 5008 ft | 274 kts | 63° |
| 2026-04-26 18:13 | 53.82947 | 10.27512 | 5013 ft | 274 kts | 63° |
| 2026-04-26 18:13 | 53.83777 | 10.30425 | 5046 ft | 276 kts | 64° |
| 2026-04-26 18:13 | 53.84061 | 10.31420 | 5238 ft | 278 kts | 63° |
| 2026-04-26 18:14 | 53.85457 | 10.36319 | 6795 ft | 280 kts | 62° |
| 2026-04-26 18:14 | 53.86309 | 10.39310 | 7635 ft | 283 kts | 61° |
| 2026-04-26 18:14 | 53.87168 | 10.42327 | 8474 ft | 285 kts | 61° |
| 2026-04-26 18:14 | 53.88032 | 10.45368 | 9325 ft | 288 kts | 60° |
| 2026-04-26 18:15 | 53.88908 | 10.48448 | 10036 ft | 293 kts | 60° |
| 2026-04-26 18:15 | 53.89792 | 10.51559 | 10245 ft | 293 kts | 60° |
| 2026-04-26 18:15 | 53.90672 | 10.54677 | 10297 ft | 293 kts | 60° |
| 2026-04-26 18:15 | 53.91549 | 10.57793 | 10298 ft | 293 kts | 60° |
| 2026-04-26 18:16 | 53.92425 | 10.60909 | 10302 ft | 292 kts | 60° |
| 2026-04-26 18:16 | 53.94264 | 10.67035 | 10301 ft | 288 kts | 48° |
| 2026-04-26 18:16 | 53.95152 | 10.68749 | 10302 ft | 286 kts | 43° |
| 2026-04-26 18:17 | 53.96507 | 10.71214 | 10301 ft | 286 kts | 42° |
| 2026-04-26 18:17 | 53.98322 | 10.74499 | 10802 ft | 289 kts | 42° |
| 2026-04-26 18:17 | 53.99252 | 10.76183 | 11336 ft | 290 kts | 42° |
| 2026-04-26 18:17 | 54.01092 | 10.79518 | 12308 ft | 295 kts | 42° |
| 2026-04-26 18:18 | 54.02036 | 10.81230 | 12799 ft | 297 kts | 42° |
| 2026-04-26 18:18 | 54.03467 | 10.83834 | 13518 ft | 301 kts | 42° |
| 2026-04-26 18:18 | 54.04907 | 10.86456 | 14206 ft | 305 kts | 42° |
| 2026-04-26 18:18 | 54.06366 | 10.89115 | 14849 ft | 309 kts | 42° |
| 2026-04-26 18:19 | 54.07839 | 10.91811 | 15483 ft | 313 kts | 42° |
| 2026-04-26 18:19 | 54.09327 | 10.94542 | 16120 ft | 316 kts | 42° |
| 2026-04-26 18:19 | 54.10829 | 10.97304 | 16763 ft | 320 kts | 42° |
| 2026-04-26 18:19 | 54.12352 | 11.00106 | 17361 ft | 323 kts | 42° |
| 2026-04-26 18:20 | 54.13886 | 11.02937 | 17988 ft | 327 kts | 42° |
| 2026-04-26 18:20 | 54.15435 | 11.05804 | 18604 ft | 330 kts | 42° |
| 2026-04-26 18:20 | 54.16995 | 11.08700 | 19133 ft | 334 kts | 42° |
| 2026-04-26 18:20 | 54.18038 | 11.10641 | 19491 ft | 335 kts | 42° |
| 2026-04-26 18:21 | 54.20157 | 11.14591 | 20225 ft | 339 kts | 42° |
| 2026-04-26 18:21 | 54.21755 | 11.17572 | 20766 ft | 342 kts | 42° |
| 2026-04-26 18:21 | 54.23368 | 11.20582 | 21309 ft | 345 kts | 42° |
| 2026-04-26 18:21 | 54.24990 | 11.23615 | 21846 ft | 347 kts | 42° |
| 2026-04-26 18:22 | 54.26628 | 11.26680 | 22391 ft | 350 kts | 41° |
| 2026-04-26 18:22 | 54.28275 | 11.29766 | 22921 ft | 353 kts | 41° |
| 2026-04-26 18:22 | 54.29936 | 11.32882 | 23454 ft | 355 kts | 41° |
| 2026-04-26 18:22 | 54.31607 | 11.36028 | 23954 ft | 358 kts | 41° |
| 2026-04-26 18:23 | 54.33287 | 11.39197 | 24376 ft | 361 kts | 41° |
| 2026-04-26 18:23 | 54.34980 | 11.42400 | 24807 ft | 363 kts | 41° |
| 2026-04-26 18:23 | 54.36680 | 11.45623 | 25232 ft | 366 kts | 41° |
| 2026-04-26 18:23 | 54.38395 | 11.48865 | 25653 ft | 368 kts | 41° |
| 2026-04-26 18:24 | 54.40123 | 11.52118 | 26074 ft | 370 kts | 41° |
| 2026-04-26 18:24 | 54.41863 | 11.55400 | 26496 ft | 373 kts | 41° |
| 2026-04-26 18:24 | 54.43616 | 11.58710 | 26914 ft | 375 kts | 41° |
| 2026-04-26 18:24 | 54.45379 | 11.62044 | 27317 ft | 378 kts | 41° |
| 2026-04-26 18:25 | 54.47276 | 11.65114 | 27702 ft | 374 kts | 32° |
| 2026-04-26 18:25 | 54.49410 | 11.67632 | 28095 ft | 371 kts | 25° |
| 2026-04-26 18:25 | 54.51604 | 11.69995 | 28489 ft | 374 kts | 26° |
| 2026-04-26 18:25 | 54.53813 | 11.72377 | 28876 ft | 376 kts | 26° |
| 2026-04-26 18:26 | 54.56037 | 11.74779 | 29242 ft | 378 kts | 26° |
| 2026-04-26 18:26 | 54.58269 | 11.77205 | 29639 ft | 381 kts | 26° |
| 2026-04-26 18:26 | 54.60517 | 11.79652 | 30005 ft | 383 kts | 26° |
| 2026-04-26 18:26 | 54.62775 | 11.82112 | 30380 ft | 385 kts | 26° |
| 2026-04-26 18:27 | 54.65050 | 11.84588 | 30675 ft | 387 kts | 26° |
| 2026-04-26 18:27 | 54.67334 | 11.87078 | 30993 ft | 390 kts | 26° |
| 2026-04-26 18:27 | 54.69634 | 11.89588 | 31297 ft | 392 kts | 26° |
| 2026-04-26 18:27 | 54.71941 | 11.92113 | 31606 ft | 394 kts | 26° |
| 2026-04-26 18:28 | 54.74265 | 11.94665 | 31918 ft | 396 kts | 26° |
| 2026-04-26 18:28 | 54.76598 | 11.97231 | 32223 ft | 398 kts | 26° |
| 2026-04-26 18:28 | 54.78939 | 11.99807 | 32529 ft | 401 kts | 26° |
| 2026-04-26 18:28 | 54.81302 | 12.02412 | 32831 ft | 403 kts | 26° |
| 2026-04-26 18:29 | 54.83672 | 12.05027 | 33126 ft | 405 kts | 26° |
| 2026-04-26 18:29 | 54.86050 | 12.07655 | 33419 ft | 407 kts | 26° |
| 2026-04-26 18:29 | 54.88447 | 12.10300 | 33704 ft | 409 kts | 26° |
| 2026-04-26 18:29 | 54.90852 | 12.12957 | 34006 ft | 411 kts | 26° |
| 2026-04-26 18:30 | 54.93273 | 12.15636 | 34292 ft | 413 kts | 26° |
| 2026-04-26 18:30 | 54.95700 | 12.18327 | 34538 ft | 415 kts | 26° |
| 2026-04-26 18:30 | 54.98143 | 12.21043 | 34793 ft | 417 kts | 27° |
| 2026-04-26 18:30 | 55.00591 | 12.23771 | 35047 ft | 419 kts | 27° |
| 2026-04-26 18:31 | 55.03053 | 12.26520 | 35296 ft | 421 kts | 27° |
| 2026-04-26 18:31 | 55.05518 | 12.29279 | 35541 ft | 422 kts | 27° |
| 2026-04-26 18:31 | 55.07993 | 12.32053 | 35775 ft | 424 kts | 27° |
| 2026-04-26 18:31 | 55.10477 | 12.34840 | 36007 ft | 425 kts | 27° |
| 2026-04-26 18:32 | 55.12970 | 12.37633 | 36235 ft | 427 kts | 27° |
| 2026-04-26 18:32 | 55.15472 | 12.40437 | 36451 ft | 428 kts | 27° |
| 2026-04-26 18:32 | 55.17981 | 12.43260 | 36662 ft | 430 kts | 27° |
| 2026-04-26 18:32 | 55.20495 | 12.46101 | 36865 ft | 431 kts | 27° |
| 2026-04-26 18:33 | 55.23014 | 12.48959 | 37056 ft | 433 kts | 27° |
| 2026-04-26 18:33 | 55.25537 | 12.51873 | 37231 ft | 434 kts | 28° |
| 2026-04-26 18:33 | 55.30589 | 12.57841 | 37287 ft | 435 kts | 28° |
| 2026-04-26 18:34 | 55.35594 | 12.63808 | 37283 ft | 442 kts | 28° |
| 2026-04-26 18:34 | 55.40772 | 12.69962 | 37282 ft | 451 kts | 28° |
| 2026-04-26 18:35 | 55.45986 | 12.76149 | 37279 ft | 459 kts | 29° |
| 2026-04-26 18:35 | 55.51326 | 12.82518 | 37280 ft | 461 kts | 29° |
| 2026-04-26 18:36 | 55.56624 | 12.88868 | 37277 ft | 461 kts | 29° |
| 2026-04-26 18:36 | 55.61922 | 12.95239 | 37279 ft | 460 kts | 29° |
| 2026-04-26 18:37 | 55.67222 | 13.01634 | 37298 ft | 461 kts | 29° |
| 2026-04-26 18:37 | 55.72528 | 13.08046 | 37308 ft | 462 kts | 29° |
| 2026-04-26 18:38 | 55.77847 | 13.14486 | 37316 ft | 463 kts | 29° |
| 2026-04-26 18:38 | 55.83160 | 13.20944 | 37318 ft | 463 kts | 29° |
| 2026-04-26 18:39 | 55.88468 | 13.27430 | 37310 ft | 463 kts | 29° |
| 2026-04-26 18:39 | 55.93773 | 13.33947 | 37303 ft | 463 kts | 29° |
| 2026-04-26 18:40 | 55.99076 | 13.40484 | 37306 ft | 463 kts | 29° |
| 2026-04-26 18:40 | 56.04380 | 13.47018 | 37310 ft | 463 kts | 29° |
| 2026-04-26 18:41 | 56.09683 | 13.53572 | 37310 ft | 463 kts | 29° |
| 2026-04-26 18:41 | 56.14980 | 13.60165 | 37313 ft | 463 kts | 29° |
| 2026-04-26 18:42 | 56.20279 | 13.66763 | 37313 ft | 463 kts | 29° |
| 2026-04-26 18:42 | 56.25573 | 13.73381 | 37309 ft | 464 kts | 29° |
| 2026-04-26 18:43 | 56.30859 | 13.80024 | 37307 ft | 464 kts | 29° |
| 2026-04-26 18:43 | 56.36140 | 13.86681 | 37304 ft | 464 kts | 29° |
| 2026-04-26 18:44 | 56.41423 | 13.93343 | 37300 ft | 463 kts | 29° |
| 2026-04-26 18:44 | 56.46707 | 14.00052 | 37299 ft | 463 kts | 30° |
| 2026-04-26 18:45 | 56.51979 | 14.06773 | 37295 ft | 463 kts | 30° |
| 2026-04-26 18:45 | 56.57242 | 14.13489 | 37295 ft | 463 kts | 30° |
| 2026-04-26 18:46 | 56.62502 | 14.20239 | 37297 ft | 463 kts | 30° |
| 2026-04-26 18:46 | 56.67744 | 14.26986 | 37244 ft | 460 kts | 30° |
| 2026-04-26 18:47 | 56.72959 | 14.33707 | 37241 ft | 459 kts | 30° |
| 2026-04-26 18:47 | 56.78162 | 14.40437 | 37225 ft | 459 kts | 30° |
| 2026-04-26 18:48 | 56.83358 | 14.47190 | 37208 ft | 458 kts | 30° |
| 2026-04-26 18:48 | 56.88547 | 14.53953 | 37204 ft | 459 kts | 30° |
| 2026-04-26 18:49 | 56.93748 | 14.60759 | 37221 ft | 460 kts | 30° |
| 2026-04-26 18:49 | 56.98948 | 14.67594 | 37220 ft | 460 kts | 30° |
| 2026-04-26 18:50 | 57.03927 | 14.75073 | 37227 ft | 465 kts | 35° |
| 2026-04-26 18:50 | 57.08750 | 14.83019 | 37237 ft | 466 kts | 36° |
| 2026-04-26 18:51 | 57.13538 | 14.91043 | 37247 ft | 466 kts | 36° |
| 2026-04-26 18:51 | 57.18340 | 14.99014 | 37246 ft | 463 kts | 36° |
| 2026-04-26 18:52 | 57.22331 | 15.05602 | 37250 ft | 463 kts | 36° |
| 2026-04-26 18:52 | 57.27902 | 15.14913 | 37227 ft | 462 kts | 36° |
| 2026-04-26 18:53 | 57.32648 | 15.22924 | 37224 ft | 462 kts | 36° |
| 2026-04-26 18:53 | 57.37400 | 15.30905 | 37220 ft | 461 kts | 36° |
| 2026-04-26 18:54 | 57.42134 | 15.38931 | 37223 ft | 461 kts | 36° |
| 2026-04-26 18:54 | 57.46089 | 15.45693 | 37232 ft | 462 kts | 36° |
| 2026-04-26 18:55 | 57.50823 | 15.53773 | 37244 ft | 462 kts | 36° |
| 2026-04-26 18:55 | 57.55562 | 15.61868 | 37244 ft | 462 kts | 36° |
| 2026-04-26 18:56 | 57.60301 | 15.69973 | 37246 ft | 463 kts | 36° |
| 2026-04-26 18:56 | 57.65037 | 15.78103 | 37243 ft | 463 kts | 36° |
| 2026-04-26 18:57 | 57.68969 | 15.84876 | 37240 ft | 462 kts | 36° |
| 2026-04-26 18:57 | 57.74464 | 15.94372 | 37234 ft | 462 kts | 36° |
| 2026-04-26 18:58 | 57.79209 | 16.02617 | 37232 ft | 462 kts | 36° |
| 2026-04-26 18:58 | 57.83882 | 16.10765 | 37225 ft | 462 kts | 36° |
| 2026-04-26 18:59 | 57.88605 | 16.19040 | 37222 ft | 461 kts | 36° |
| 2026-04-26 18:59 | 57.93280 | 16.27267 | 36875 ft | 457 kts | 36° |
| 2026-04-26 19:00 | 57.95593 | 16.31346 | 36134 ft | 455 kts | 36° |
| 2026-04-26 19:00 | 57.97873 | 16.35380 | 35287 ft | 443 kts | 36° |
| 2026-04-26 19:00 | 58.00121 | 16.39354 | 34307 ft | 444 kts | 35° |
| 2026-04-26 19:00 | 58.02363 | 16.43321 | 33622 ft | 441 kts | 35° |
| 2026-04-26 19:01 | 58.04591 | 16.47278 | 32802 ft | 439 kts | 35° |
| 2026-04-26 19:01 | 58.06818 | 16.51232 | 31929 ft | 439 kts | 35° |
| 2026-04-26 19:01 | 58.09044 | 16.55187 | 31023 ft | 440 kts | 35° |
| 2026-04-26 19:01 | 58.11273 | 16.59149 | 30068 ft | 440 kts | 35° |
| 2026-04-26 19:02 | 58.13503 | 16.63123 | 29397 ft | 441 kts | 35° |
| 2026-04-26 19:02 | 58.15740 | 16.67126 | 29132 ft | 443 kts | 35° |
| 2026-04-26 19:02 | 58.17967 | 16.71129 | 28690 ft | 440 kts | 35° |
| 2026-04-26 19:02 | 58.19439 | 16.73780 | 27887 ft | 442 kts | 35° |
| 2026-04-26 19:03 | 58.22437 | 16.79183 | 26183 ft | 448 kts | 35° |
| 2026-04-26 19:03 | 58.24664 | 16.83214 | 25864 ft | 432 kts | 35° |
| 2026-04-26 19:03 | 58.26783 | 16.87087 | 25747 ft | 414 kts | 35° |
| 2026-04-26 19:03 | 58.28796 | 16.90783 | 25587 ft | 389 kts | 35° |
| 2026-04-26 19:04 | 58.30659 | 16.94221 | 25368 ft | 358 kts | 34° |
| 2026-04-26 19:04 | 58.32404 | 16.97419 | 24824 ft | 340 kts | 33° |
| 2026-04-26 19:04 | 58.34096 | 17.00477 | 24044 ft | 332 kts | 33° |
| 2026-04-26 19:04 | 58.35762 | 17.03469 | 23121 ft | 327 kts | 33° |
| 2026-04-26 19:05 | 58.39038 | 17.09372 | 21554 ft | 322 kts | 33° |
| 2026-04-26 19:05 | 58.40651 | 17.12297 | 21125 ft | 319 kts | 33° |
| 2026-04-26 19:05 | 58.42266 | 17.15227 | 20296 ft | 327 kts | 34° |
| 2026-04-26 19:06 | 58.43934 | 17.18247 | 19564 ft | 333 kts | 34° |
| 2026-04-26 19:06 | 58.45607 | 17.21307 | 19044 ft | 332 kts | 35° |
| 2026-04-26 19:06 | 58.47258 | 17.24353 | 18553 ft | 329 kts | 35° |
| 2026-04-26 19:06 | 58.48902 | 17.27392 | 18033 ft | 326 kts | 35° |
| 2026-04-26 19:07 | 58.50523 | 17.30398 | 17490 ft | 323 kts | 36° |
| 2026-04-26 19:07 | 58.52131 | 17.33378 | 16958 ft | 320 kts | 36° |
| 2026-04-26 19:07 | 58.53602 | 17.36643 | 16247 ft | 330 kts | 45° |
| 2026-04-26 19:07 | 58.55054 | 17.39921 | 15835 ft | 316 kts | 37° |
| 2026-04-26 19:08 | 58.56635 | 17.42770 | 15356 ft | 309 kts | 33° |
| 2026-04-26 19:08 | 58.58250 | 17.45446 | 14863 ft | 306 kts | 33° |
| 2026-04-26 19:08 | 58.59858 | 17.48106 | 14378 ft | 304 kts | 34° |
| 2026-04-26 19:08 | 58.61432 | 17.50795 | 13889 ft | 302 kts | 35° |
| 2026-04-26 19:09 | 58.62969 | 17.53517 | 13332 ft | 301 kts | 36° |
| 2026-04-26 19:09 | 58.64490 | 17.56261 | 12760 ft | 299 kts | 37° |
| 2026-04-26 19:09 | 58.65992 | 17.59034 | 12206 ft | 299 kts | 38° |
| 2026-04-26 19:09 | 58.67462 | 17.61802 | 11906 ft | 290 kts | 38° |
| 2026-04-26 19:10 | 58.68869 | 17.64476 | 11722 ft | 279 kts | 38° |
| 2026-04-26 19:10 | 58.70242 | 17.67075 | 11334 ft | 276 kts | 38° |
| 2026-04-26 19:10 | 58.71587 | 17.69617 | 11127 ft | 269 kts | 38° |
| 2026-04-26 19:10 | 58.72954 | 17.72178 | 11133 ft | 277 kts | 38° |
| 2026-04-26 19:11 | 58.74336 | 17.74763 | 11131 ft | 277 kts | 38° |
| 2026-04-26 19:11 | 58.75716 | 17.77354 | 11126 ft | 277 kts | 38° |
| 2026-04-26 19:11 | 58.77093 | 17.79955 | 11130 ft | 278 kts | 38° |
| 2026-04-26 19:11 | 58.78472 | 17.82561 | 11133 ft | 278 kts | 38° |
| 2026-04-26 19:12 | 58.79853 | 17.85167 | 11127 ft | 277 kts | 38° |
| 2026-04-26 19:12 | 58.81239 | 17.87751 | 11126 ft | 275 kts | 34° |
| 2026-04-26 19:12 | 58.82837 | 17.89648 | 11127 ft | 268 kts | 20° |
| 2026-04-26 19:12 | 58.84514 | 17.91229 | 11125 ft | 268 kts | 20° |
| 2026-04-26 19:13 | 58.86192 | 17.92814 | 11124 ft | 268 kts | 20° |
| 2026-04-26 19:13 | 58.87869 | 17.94396 | 11123 ft | 268 kts | 20° |
| 2026-04-26 19:13 | 58.89549 | 17.95958 | 11122 ft | 267 kts | 18° |
| 2026-04-26 19:13 | 58.91320 | 17.96600 | 11122 ft | 258 kts | 353° |
| 2026-04-26 19:14 | 58.93090 | 17.96162 | 11127 ft | 257 kts | 348° |
| 2026-04-26 19:14 | 58.94856 | 17.95579 | 11124 ft | 257 kts | 348° |
| 2026-04-26 19:14 | 58.96614 | 17.94983 | 11122 ft | 257 kts | 348° |
| 2026-04-26 19:14 | 58.97760 | 17.94593 | 11125 ft | 257 kts | 348° |
| 2026-04-26 19:15 | 59.00133 | 17.93787 | 11120 ft | 256 kts | 348° |
| 2026-04-26 19:15 | 59.01892 | 17.93190 | 11091 ft | 255 kts | 348° |
| 2026-04-26 19:15 | 59.03631 | 17.92601 | 10682 ft | 254 kts | 347° |
| 2026-04-26 19:15 | 59.05374 | 17.92014 | 10229 ft | 255 kts | 348° |
| 2026-04-26 19:16 | 59.07122 | 17.91428 | 9774 ft | 255 kts | 348° |
| 2026-04-26 19:16 | 59.08872 | 17.90838 | 9311 ft | 254 kts | 348° |
| 2026-04-26 19:16 | 59.10609 | 17.90242 | 8886 ft | 253 kts | 348° |
| 2026-04-26 19:16 | 59.12342 | 17.89636 | 8454 ft | 252 kts | 348° |
| 2026-04-26 19:17 | 59.14060 | 17.89026 | 8046 ft | 251 kts | 348° |
| 2026-04-26 19:17 | 59.15772 | 17.88406 | 7640 ft | 250 kts | 348° |
| 2026-04-26 19:17 | 59.17473 | 17.87778 | 7243 ft | 248 kts | 348° |
| 2026-04-26 19:17 | 59.19157 | 17.87151 | 6927 ft | 245 kts | 348° |
| 2026-04-26 19:18 | 59.20832 | 17.86517 | 6509 ft | 246 kts | 348° |
| 2026-04-26 19:18 | 59.22509 | 17.85870 | 6099 ft | 245 kts | 348° |
| 2026-04-26 19:18 | 59.24174 | 17.85239 | 5680 ft | 243 kts | 348° |
| 2026-04-26 19:18 | 59.25830 | 17.84598 | 5287 ft | 242 kts | 348° |
| 2026-04-26 19:19 | 59.27484 | 17.84272 | 5055 ft | 236 kts | 2° |
| 2026-04-26 19:19 | 59.29084 | 17.84596 | 4910 ft | 226 kts | 4° |
| 2026-04-26 19:19 | 59.30624 | 17.84917 | 4642 ft | 221 kts | 4° |
| 2026-04-26 19:19 | 59.32152 | 17.85237 | 4291 ft | 220 kts | 4° |
| 2026-04-26 19:20 | 59.33666 | 17.85555 | 4032 ft | 217 kts | 4° |
| 2026-04-26 19:20 | 59.34656 | 17.85667 | 4006 ft | 211 kts | 356° |
| 2026-04-26 19:20 | 59.36520 | 17.85795 | 4009 ft | 201 kts | 4° |
| 2026-04-26 19:20 | 59.37906 | 17.86203 | 4011 ft | 200 kts | 7° |
| 2026-04-26 19:21 | 59.39277 | 17.86676 | 4009 ft | 201 kts | 7° |
| 2026-04-26 19:21 | 59.40650 | 17.87164 | 4009 ft | 200 kts | 7° |
| 2026-04-26 19:21 | 59.42024 | 17.87655 | 4006 ft | 200 kts | 7° |
| 2026-04-26 19:21 | 59.43397 | 17.88146 | 3993 ft | 201 kts | 7° |
| 2026-04-26 19:22 | 59.44774 | 17.88639 | 3802 ft | 200 kts | 7° |
| 2026-04-26 19:22 | 59.46134 | 17.89127 | 3556 ft | 198 kts | 7° |
| 2026-04-26 19:22 | 59.47488 | 17.89613 | 3290 ft | 197 kts | 7° |
| 2026-04-26 19:22 | 59.48830 | 17.90094 | 3014 ft | 194 kts | 7° |
| 2026-04-26 19:23 | 59.50140 | 17.90566 | 2763 ft | 187 kts | 7° |
| 2026-04-26 19:23 | 59.51384 | 17.91014 | 2510 ft | 176 kts | 7° |
| 2026-04-26 19:23 | 59.52559 | 17.91438 | 2250 ft | 168 kts | 7° |
| 2026-04-26 19:23 | 59.53701 | 17.91848 | 2022 ft | 165 kts | 7° |
| 2026-04-26 19:24 | 59.54809 | 17.92247 | 1791 ft | 157 kts | 7° |
| 2026-04-26 19:24 | 59.55837 | 17.92619 | 1579 ft | 144 kts | 7° |
| 2026-04-26 19:24 | 59.57700 | 17.93291 | 1203 ft | 130 kts | 6° |
| 2026-04-26 19:25 | 59.58581 | 17.93608 | 1024 ft | 128 kts | 6° |
| 2026-04-26 19:25 | 59.58878 | 17.93715 | 951 ft | 129 kts | 6° |
| 2026-04-26 19:25 | 59.60365 | 17.94251 | 647 ft | 133 kts | 7° |
| 2026-04-26 19:25 | 59.61274 | 17.94580 | 469 ft | 133 kts | 7° |
| 2026-04-26 19:26 | 59.62184 | 17.94909 | 293 ft | 132 kts | 7° |
| 2026-04-26 19:26 | 59.63082 | 17.95235 | 149 ft | 126 kts | 7° |
| 2026-04-26 19:26 | 59.63709 | 17.95458 | 145 ft | 56 kts | 9° |
| 2026-04-26 19:26 | 59.64061 | 17.95592 | 145 ft | 49 kts | 11° |
| 2026-04-26 19:27 | 59.64391 | 17.95703 | 145 ft | 46 kts | 5° |
| 2026-04-26 19:27 | 59.64627 | 17.95604 | 139 ft | 15 kts | 338° |
| 2026-04-26 19:27 | 59.64640 | 17.95594 | 139 ft | 0 kts | 338° |
| 2026-04-26 19:29 | 59.64642 | 17.95593 | 139 ft | 2 kts | 338° |
| 2026-04-26 19:29 | 59.64802 | 17.95484 | 138 ft | 36 kts | 348° |
| 2026-04-26 19:30 | 59.65030 | 17.95507 | 138 ft | 32 kts | 356° |
| 2026-04-26 19:30 | 59.65255 | 17.95409 | 138 ft | 36 kts | 345° |
| 2026-04-26 19:30 | 59.65447 | 17.95300 | 138 ft | 29 kts | 346° |
| 2026-04-26 19:30 | 59.65512 | 17.95268 | 138 ft | 29 kts | 346° |
| 2026-04-26 19:31 | 59.65743 | 17.94977 | 138 ft | 25 kts | 255° |
| 2026-04-26 19:31 | 59.65699 | 17.94636 | 138 ft | 26 kts | 257° |
| 2026-04-26 19:31 | 59.65657 | 17.94264 | 138 ft | 30 kts | 257° |
| 2026-04-26 19:31 | 59.65604 | 17.93863 | 138 ft | 31 kts | 256° |
| 2026-04-26 19:32 | 59.65553 | 17.93455 | 138 ft | 26 kts | 254° |
| 2026-04-26 19:32 | 59.65452 | 17.93344 | 138 ft | 18 kts | 178° |
| 2026-04-26 19:32 | 59.65369 | 17.93377 | 138 ft | 19 kts | 162° |
| 2026-04-26 19:32 | 59.65352 | 17.93528 | 138 ft | 11 kts | 71° |
| 2026-04-26 19:33 | 59.65355 | 17.93547 | 138 ft | 0 kts | 74° |